sensor_id;sensor_type;location;lat;lon;timestamp;P1;durP1;ratioP1;P2;durP2;ratioP2
41061;SDS011;26812;42.662;23.352;2022-07-01T00:02:09;6.60;;;4.05;;
41061;SDS011;26812;42.662;23.352;2022-07-01T00:04:35;4.65;;;3.95;;
41061;SDS011;26812;42.662;23.352;2022-07-01T00:07:00;5.75;;;4.57;;
41061;SDS011;26812;42.662;23.352;2022-07-01T00:09:26;4.38;;;3.97;;
41061;SDS011;26812;42.662;23.352;2022-07-01T00:11:52;5.95;;;3.75;;
41061;SDS011;26812;42.662;23.352;2022-07-01T00:14:17;7.63;;;4.97;;
41061;SDS011;26812;42.662;23.352;2022-07-01T00:16:43;5.97;;;4.50;;
41061;SDS011;26812;42.662;23.352;2022-07-01T00:19:08;5.30;;;4.32;;
41061;SDS011;26812;42.662;23.352;2022-07-01T00:21:33;4.75;;;4.20;;
41061;SDS011;26812;42.662;23.352;2022-07-01T00:23:59;4.72;;;3.63;;
41061;SDS011;26812;42.662;23.352;2022-07-01T00:26:24;5.65;;;4.10;;
41061;SDS011;26812;42.662;23.352;2022-07-01T00:28:50;5.60;;;4.10;;
41061;SDS011;26812;42.662;23.352;2022-07-01T00:31:16;5.18;;;3.90;;
41061;SDS011;26812;42.662;23.352;2022-07-01T00:33:42;5.22;;;3.75;;
41061;SDS011;26812;42.662;23.352;2022-07-01T00:36:07;6.53;;;4.15;;
41061;SDS011;26812;42.662;23.352;2022-07-01T00:38:33;4.47;;;4.07;;
41061;SDS011;26812;42.662;23.352;2022-07-01T00:40:58;6.03;;;3.83;;
41061;SDS011;26812;42.662;23.352;2022-07-01T00:43:24;4.53;;;4.07;;
41061;SDS011;26812;42.662;23.352;2022-07-01T00:45:50;5.13;;;3.80;;
41061;SDS011;26812;42.662;23.352;2022-07-01T00:48:17;3.70;;;3.40;;
41061;SDS011;26812;42.662;23.352;2022-07-01T00:50:44;6.30;;;3.95;;
41061;SDS011;26812;42.662;23.352;2022-07-01T00:53:11;5.03;;;3.40;;
41061;SDS011;26812;42.662;23.352;2022-07-01T00:55:37;5.38;;;3.58;;
41061;SDS011;26812;42.662;23.352;2022-07-01T00:58:02;5.55;;;4.05;;
41061;SDS011;26812;42.662;23.352;2022-07-01T01:00:28;4.32;;;3.88;;
41061;SDS011;26812;42.662;23.352;2022-07-01T01:02:54;5.68;;;3.85;;
41061;SDS011;26812;42.662;23.352;2022-07-01T01:05:20;5.40;;;3.80;;
41061;SDS011;26812;42.662;23.352;2022-07-01T01:07:49;5.70;;;4.45;;
41061;SDS011;26812;42.662;23.352;2022-07-01T01:10:16;7.55;;;4.22;;
41061;SDS011;26812;42.662;23.352;2022-07-01T01:12:42;4.50;;;4.10;;
41061;SDS011;26812;42.662;23.352;2022-07-01T01:15:08;5.63;;;4.15;;
41061;SDS011;26812;42.662;23.352;2022-07-01T01:17:35;5.57;;;4.05;;
41061;SDS011;26812;42.662;23.352;2022-07-01T01:20:00;5.50;;;3.83;;
41061;SDS011;26812;42.662;23.352;2022-07-01T01:22:26;5.22;;;3.88;;
41061;SDS011;26812;42.662;23.352;2022-07-01T01:24:51;5.10;;;3.85;;
41061;SDS011;26812;42.662;23.352;2022-07-01T01:27:17;5.85;;;4.35;;
41061;SDS011;26812;42.662;23.352;2022-07-01T01:29:42;4.43;;;3.92;;
41061;SDS011;26812;42.662;23.352;2022-07-01T01:32:08;6.55;;;4.13;;
41061;SDS011;26812;42.662;23.352;2022-07-01T01:34:34;7.30;;;4.88;;
41061;SDS011;26812;42.662;23.352;2022-07-01T01:37:05;7.78;;;4.50;;
41061;SDS011;26812;42.662;23.352;2022-07-01T01:39:31;4.78;;;4.15;;
41061;SDS011;26812;42.662;23.352;2022-07-01T01:41:57;5.75;;;4.30;;
41061;SDS011;26812;42.662;23.352;2022-07-01T01:44:22;5.53;;;4.00;;
41061;SDS011;26812;42.662;23.352;2022-07-01T01:46:48;6.55;;;5.10;;
41061;SDS011;26812;42.662;23.352;2022-07-01T01:49:13;4.40;;;4.00;;
41061;SDS011;26812;42.662;23.352;2022-07-01T01:51:39;5.22;;;4.10;;
41061;SDS011;26812;42.662;23.352;2022-07-01T01:54:05;5.22;;;4.53;;
41061;SDS011;26812;42.662;23.352;2022-07-01T01:56:31;7.03;;;4.18;;
41061;SDS011;26812;42.662;23.352;2022-07-01T01:58:57;5.78;;;4.00;;
41061;SDS011;26812;42.662;23.352;2022-07-01T02:01:23;4.93;;;4.45;;
41061;SDS011;26812;42.662;23.352;2022-07-01T02:03:49;7.03;;;4.45;;
41061;SDS011;26812;42.662;23.352;2022-07-01T02:06:16;7.97;;;4.40;;
41061;SDS011;26812;42.662;23.352;2022-07-01T02:08:43;5.93;;;4.55;;
41061;SDS011;26812;42.662;23.352;2022-07-01T02:11:09;6.25;;;5.07;;
41061;SDS011;26812;42.662;23.352;2022-07-01T02:13:35;6.18;;;4.78;;
41061;SDS011;26812;42.662;23.352;2022-07-01T02:16:01;8.50;;;5.13;;
41061;SDS011;26812;42.662;23.352;2022-07-01T02:18:26;5.72;;;5.15;;
41061;SDS011;26812;42.662;23.352;2022-07-01T02:20:53;5.95;;;4.70;;
41061;SDS011;26812;42.662;23.352;2022-07-01T02:23:18;4.97;;;4.60;;
41061;SDS011;26812;42.662;23.352;2022-07-01T02:25:44;6.65;;;4.85;;
41061;SDS011;26812;42.662;23.352;2022-07-01T02:28:10;5.65;;;5.15;;
41061;SDS011;26812;42.662;23.352;2022-07-01T02:30:35;5.40;;;4.88;;
41061;SDS011;26812;42.662;23.352;2022-07-01T02:33:05;7.88;;;5.22;;
41061;SDS011;26812;42.662;23.352;2022-07-01T02:35:34;7.47;;;5.45;;
41061;SDS011;26812;42.662;23.352;2022-07-01T02:38:02;5.72;;;4.95;;
41061;SDS011;26812;42.662;23.352;2022-07-01T02:40:29;7.50;;;5.32;;
41061;SDS011;26812;42.662;23.352;2022-07-01T02:42:55;5.25;;;4.75;;
41061;SDS011;26812;42.662;23.352;2022-07-01T02:45:20;12.30;;;5.05;;
41061;SDS011;26812;42.662;23.352;2022-07-01T02:47:46;8.98;;;5.00;;
41061;SDS011;26812;42.662;23.352;2022-07-01T02:50:12;6.85;;;5.60;;
41061;SDS011;26812;42.662;23.352;2022-07-01T02:52:39;8.15;;;7.35;;
41061;SDS011;26812;42.662;23.352;2022-07-01T02:55:06;7.88;;;4.72;;
41061;SDS011;26812;42.662;23.352;2022-07-01T02:57:33;6.88;;;5.55;;
41061;SDS011;26812;42.662;23.352;2022-07-01T02:59:59;6.55;;;5.65;;
41061;SDS011;26812;42.662;23.352;2022-07-01T03:02:25;7.25;;;6.05;;
41061;SDS011;26812;42.662;23.352;2022-07-01T03:04:50;7.35;;;5.80;;
41061;SDS011;26812;42.662;23.352;2022-07-01T03:07:18;8.65;;;6.70;;
41061;SDS011;26812;42.662;23.352;2022-07-01T03:09:44;7.50;;;6.00;;
41061;SDS011;26812;42.662;23.352;2022-07-01T03:12:09;7.07;;;6.45;;
41061;SDS011;26812;42.662;23.352;2022-07-01T03:14:53;6.75;;;5.70;;
41061;SDS011;26812;42.662;23.352;2022-07-01T03:17:26;9.10;;;6.70;;
41061;SDS011;26812;42.662;23.352;2022-07-01T03:19:53;8.20;;;6.32;;
41061;SDS011;26812;42.662;23.352;2022-07-01T03:22:20;6.70;;;6.18;;
41061;SDS011;26812;42.662;23.352;2022-07-01T03:24:47;6.70;;;6.00;;
41061;SDS011;26812;42.662;23.352;2022-07-01T03:27:13;7.85;;;5.97;;
41061;SDS011;26812;42.662;23.352;2022-07-01T03:29:39;10.50;;;7.28;;
41061;SDS011;26812;42.662;23.352;2022-07-01T03:32:05;8.10;;;7.30;;
41061;SDS011;26812;42.662;23.352;2022-07-01T03:34:31;9.60;;;7.18;;
41061;SDS011;26812;42.662;23.352;2022-07-01T03:36:56;7.72;;;6.93;;
41061;SDS011;26812;42.662;23.352;2022-07-01T03:39:22;8.00;;;6.70;;
41061;SDS011;26812;42.662;23.352;2022-07-01T03:41:48;7.95;;;7.03;;
41061;SDS011;26812;42.662;23.352;2022-07-01T03:44:13;12.20;;;6.90;;
41061;SDS011;26812;42.662;23.352;2022-07-01T03:46:38;8.48;;;6.38;;
41061;SDS011;26812;42.662;23.352;2022-07-01T03:49:04;9.48;;;6.35;;
41061;SDS011;26812;42.662;23.352;2022-07-01T03:51:29;10.63;;;6.45;;
41061;SDS011;26812;42.662;23.352;2022-07-01T03:53:55;9.60;;;7.47;;
41061;SDS011;26812;42.662;23.352;2022-07-01T03:56:41;7.60;;;6.80;;
41061;SDS011;26812;42.662;23.352;2022-07-01T03:59:07;11.27;;;7.25;;
41061;SDS011;26812;42.662;23.352;2022-07-01T04:01:32;7.32;;;6.35;;
41061;SDS011;26812;42.662;23.352;2022-07-01T04:03:57;9.25;;;6.53;;
41061;SDS011;26812;42.662;23.352;2022-07-01T04:06:23;6.93;;;6.22;;
41061;SDS011;26812;42.662;23.352;2022-07-01T04:08:49;7.10;;;6.40;;
41061;SDS011;26812;42.662;23.352;2022-07-01T04:11:15;7.38;;;6.43;;
41061;SDS011;26812;42.662;23.352;2022-07-01T04:13:41;7.72;;;6.35;;
41061;SDS011;26812;42.662;23.352;2022-07-01T04:16:11;9.13;;;6.53;;
41061;SDS011;26812;42.662;23.352;2022-07-01T04:18:38;7.30;;;6.60;;
41061;SDS011;26812;42.662;23.352;2022-07-01T04:21:03;9.73;;;6.85;;
41061;SDS011;26812;42.662;23.352;2022-07-01T04:23:47;7.47;;;6.72;;
41061;SDS011;26812;42.662;23.352;2022-07-01T04:26:13;7.53;;;6.65;;
41061;SDS011;26812;42.662;23.352;2022-07-01T04:28:38;10.90;;;6.70;;
41061;SDS011;26812;42.662;23.352;2022-07-01T04:31:04;10.65;;;6.50;;
41061;SDS011;26812;42.662;23.352;2022-07-01T04:33:30;11.18;;;6.63;;
41061;SDS011;26812;42.662;23.352;2022-07-01T04:35:55;6.57;;;5.88;;
41061;SDS011;26812;42.662;23.352;2022-07-01T04:38:20;12.70;;;6.85;;
41061;SDS011;26812;42.662;23.352;2022-07-01T04:40:46;9.65;;;6.35;;
41061;SDS011;26812;42.662;23.352;2022-07-01T04:43:30;10.98;;;6.72;;
41061;SDS011;26812;42.662;23.352;2022-07-01T04:45:55;8.57;;;6.97;;
41061;SDS011;26812;42.662;23.352;2022-07-01T04:48:21;10.18;;;6.63;;
41061;SDS011;26812;42.662;23.352;2022-07-01T04:50:46;9.95;;;6.65;;
41061;SDS011;26812;42.662;23.352;2022-07-01T04:53:12;11.65;;;6.93;;
41061;SDS011;26812;42.662;23.352;2022-07-01T04:55:38;8.27;;;7.05;;
41061;SDS011;26812;42.662;23.352;2022-07-01T04:58:04;7.18;;;6.10;;
41061;SDS011;26812;42.662;23.352;2022-07-01T05:00:30;10.48;;;7.63;;
41061;SDS011;26812;42.662;23.352;2022-07-01T05:02:55;7.95;;;7.10;;
41061;SDS011;26812;42.662;23.352;2022-07-01T05:05:21;9.52;;;7.70;;
41061;SDS011;26812;42.662;23.352;2022-07-01T05:07:46;10.20;;;7.10;;
41061;SDS011;26812;42.662;23.352;2022-07-01T05:10:12;8.05;;;7.07;;
41061;SDS011;26812;42.662;23.352;2022-07-01T05:12:38;9.88;;;7.25;;
41061;SDS011;26812;42.662;23.352;2022-07-01T05:15:03;9.05;;;6.80;;
41061;SDS011;26812;42.662;23.352;2022-07-01T05:17:29;8.80;;;7.18;;
41061;SDS011;26812;42.662;23.352;2022-07-01T05:20:13;9.65;;;6.78;;
41061;SDS011;26812;42.662;23.352;2022-07-01T05:22:57;10.18;;;7.28;;
41061;SDS011;26812;42.662;23.352;2022-07-01T05:25:22;11.25;;;6.78;;
41061;SDS011;26812;42.662;23.352;2022-07-01T05:27:48;7.70;;;6.78;;
41061;SDS011;26812;42.662;23.352;2022-07-01T05:30:13;10.30;;;6.47;;
41061;SDS011;26812;42.662;23.352;2022-07-01T05:32:39;10.35;;;7.40;;
41061;SDS011;26812;42.662;23.352;2022-07-01T05:35:04;7.65;;;6.82;;
41061;SDS011;26812;42.662;23.352;2022-07-01T05:37:30;17.40;;;7.80;;
41061;SDS011;26812;42.662;23.352;2022-07-01T05:39:56;8.25;;;7.30;;
41061;SDS011;26812;42.662;23.352;2022-07-01T05:42:21;8.70;;;7.28;;
41061;SDS011;26812;42.662;23.352;2022-07-01T05:44:47;8.48;;;6.28;;
41061;SDS011;26812;42.662;23.352;2022-07-01T05:47:12;7.80;;;7.00;;
41061;SDS011;26812;42.662;23.352;2022-07-01T05:49:38;8.13;;;6.30;;
41061;SDS011;26812;42.662;23.352;2022-07-01T05:52:03;7.55;;;5.97;;
41061;SDS011;26812;42.662;23.352;2022-07-01T05:54:30;9.95;;;7.43;;
41061;SDS011;26812;42.662;23.352;2022-07-01T05:56:55;9.00;;;7.78;;
41061;SDS011;26812;42.662;23.352;2022-07-01T05:59:21;9.52;;;7.88;;
41061;SDS011;26812;42.662;23.352;2022-07-01T06:01:46;12.82;;;8.27;;
41061;SDS011;26812;42.662;23.352;2022-07-01T06:04:12;15.10;;;7.90;;
41061;SDS011;26812;42.662;23.352;2022-07-01T06:06:38;9.95;;;6.90;;
41061;SDS011;26812;42.662;23.352;2022-07-01T06:09:03;12.80;;;8.07;;
41061;SDS011;26812;42.662;23.352;2022-07-01T06:11:28;15.43;;;8.55;;
41061;SDS011;26812;42.662;23.352;2022-07-01T06:13:56;13.20;;;8.48;;
41061;SDS011;26812;42.662;23.352;2022-07-01T06:16:21;11.00;;;8.68;;
41061;SDS011;26812;42.662;23.352;2022-07-01T06:18:47;10.25;;;7.47;;
41061;SDS011;26812;42.662;23.352;2022-07-01T06:21:12;14.10;;;8.30;;
41061;SDS011;26812;42.662;23.352;2022-07-01T06:23:40;13.00;;;7.10;;
41061;SDS011;26812;42.662;23.352;2022-07-01T06:26:05;12.38;;;8.60;;
41061;SDS011;26812;42.662;23.352;2022-07-01T06:28:31;10.80;;;8.25;;
41061;SDS011;26812;42.662;23.352;2022-07-01T06:30:57;9.00;;;7.32;;
41061;SDS011;26812;42.662;23.352;2022-07-01T06:33:23;13.15;;;7.72;;
41061;SDS011;26812;42.662;23.352;2022-07-01T06:35:49;13.10;;;7.82;;
41061;SDS011;26812;42.662;23.352;2022-07-01T06:38:15;11.40;;;8.30;;
41061;SDS011;26812;42.662;23.352;2022-07-01T06:40:40;11.60;;;7.70;;
41061;SDS011;26812;42.662;23.352;2022-07-01T06:43:06;14.18;;;8.80;;
41061;SDS011;26812;42.662;23.352;2022-07-01T06:45:31;12.98;;;7.75;;
41061;SDS011;26812;42.662;23.352;2022-07-01T06:47:57;9.10;;;8.02;;
41061;SDS011;26812;42.662;23.352;2022-07-01T06:50:22;12.43;;;7.40;;
41061;SDS011;26812;42.662;23.352;2022-07-01T06:52:48;8.77;;;6.50;;
41061;SDS011;26812;42.662;23.352;2022-07-01T06:55:13;10.73;;;6.45;;
41061;SDS011;26812;42.662;23.352;2022-07-01T06:57:39;9.40;;;7.10;;
41061;SDS011;26812;42.662;23.352;2022-07-01T07:00:04;13.18;;;7.55;;
41061;SDS011;26812;42.662;23.352;2022-07-01T07:02:30;7.88;;;7.07;;
41061;SDS011;26812;42.662;23.352;2022-07-01T07:04:56;9.07;;;7.47;;
41061;SDS011;26812;42.662;23.352;2022-07-01T07:07:23;8.60;;;7.68;;
41061;SDS011;26812;42.662;23.352;2022-07-01T07:09:49;10.90;;;8.35;;
41061;SDS011;26812;42.662;23.352;2022-07-01T07:12:15;12.45;;;7.75;;
41061;SDS011;26812;42.662;23.352;2022-07-01T07:14:40;12.90;;;7.88;;
41061;SDS011;26812;42.662;23.352;2022-07-01T07:17:06;9.90;;;7.95;;
41061;SDS011;26812;42.662;23.352;2022-07-01T07:19:31;10.50;;;7.60;;
41061;SDS011;26812;42.662;23.352;2022-07-01T07:21:57;15.82;;;7.80;;
41061;SDS011;26812;42.662;23.352;2022-07-01T07:24:22;11.63;;;7.95;;
41061;SDS011;26812;42.662;23.352;2022-07-01T07:26:48;9.68;;;6.75;;
41061;SDS011;26812;42.662;23.352;2022-07-01T07:29:13;10.55;;;7.30;;
41061;SDS011;26812;42.662;23.352;2022-07-01T07:31:39;12.68;;;7.35;;
41061;SDS011;26812;42.662;23.352;2022-07-01T07:34:05;10.48;;;8.40;;
41061;SDS011;26812;42.662;23.352;2022-07-01T07:36:30;10.52;;;8.10;;
41061;SDS011;26812;42.662;23.352;2022-07-01T07:38:57;11.30;;;7.85;;
41061;SDS011;26812;42.662;23.352;2022-07-01T07:41:23;11.38;;;7.18;;
41061;SDS011;26812;42.662;23.352;2022-07-01T07:43:48;11.98;;;7.35;;
41061;SDS011;26812;42.662;23.352;2022-07-01T07:46:14;9.00;;;7.32;;
41061;SDS011;26812;42.662;23.352;2022-07-01T07:48:40;14.57;;;8.23;;
41061;SDS011;26812;42.662;23.352;2022-07-01T07:51:08;9.93;;;7.10;;
41061;SDS011;26812;42.662;23.352;2022-07-01T07:53:34;13.70;;;7.32;;
41061;SDS011;26812;42.662;23.352;2022-07-01T07:55:59;11.32;;;7.10;;
41061;SDS011;26812;42.662;23.352;2022-07-01T07:58:25;8.18;;;6.00;;
41061;SDS011;26812;42.662;23.352;2022-07-01T08:00:51;10.93;;;7.00;;
41061;SDS011;26812;42.662;23.352;2022-07-01T08:03:16;11.82;;;6.55;;
41061;SDS011;26812;42.662;23.352;2022-07-01T08:05:42;12.43;;;7.47;;
41061;SDS011;26812;42.662;23.352;2022-07-01T08:08:07;12.30;;;6.53;;
41061;SDS011;26812;42.662;23.352;2022-07-01T08:10:33;9.40;;;6.38;;
41061;SDS011;26812;42.662;23.352;2022-07-01T08:12:58;9.18;;;7.43;;
41061;SDS011;26812;42.662;23.352;2022-07-01T08:15:28;9.30;;;6.63;;
41061;SDS011;26812;42.662;23.352;2022-07-01T08:17:54;7.97;;;6.32;;
41061;SDS011;26812;42.662;23.352;2022-07-01T08:20:20;10.05;;;5.93;;
41061;SDS011;26812;42.662;23.352;2022-07-01T08:22:45;9.52;;;6.57;;
41061;SDS011;26812;42.662;23.352;2022-07-01T08:25:10;11.18;;;6.68;;
41061;SDS011;26812;42.662;23.352;2022-07-01T08:27:36;6.50;;;5.90;;
41061;SDS011;26812;42.662;23.352;2022-07-01T08:30:01;9.50;;;5.78;;
41061;SDS011;26812;42.662;23.352;2022-07-01T08:32:27;9.15;;;6.43;;
41061;SDS011;26812;42.662;23.352;2022-07-01T08:34:54;9.43;;;5.88;;
41061;SDS011;26812;42.662;23.352;2022-07-01T08:37:19;9.38;;;5.88;;
41061;SDS011;26812;42.662;23.352;2022-07-01T08:39:45;7.25;;;5.38;;
41061;SDS011;26812;42.662;23.352;2022-07-01T08:42:10;6.63;;;5.60;;
41061;SDS011;26812;42.662;23.352;2022-07-01T08:44:36;6.07;;;4.88;;
41061;SDS011;26812;42.662;23.352;2022-07-01T08:47:02;8.43;;;6.03;;
41061;SDS011;26812;42.662;23.352;2022-07-01T08:49:28;8.18;;;5.88;;
41061;SDS011;26812;42.662;23.352;2022-07-01T08:51:53;8.15;;;6.07;;
41061;SDS011;26812;42.662;23.352;2022-07-01T08:54:19;8.57;;;6.10;;
41061;SDS011;26812;42.662;23.352;2022-07-01T08:56:44;8.20;;;6.30;;
41061;SDS011;26812;42.662;23.352;2022-07-01T08:59:13;7.78;;;5.53;;
41061;SDS011;26812;42.662;23.352;2022-07-01T09:01:53;6.78;;;5.13;;
41061;SDS011;26812;42.662;23.352;2022-07-01T09:04:21;9.18;;;4.95;;
41061;SDS011;26812;42.662;23.352;2022-07-01T09:06:47;6.78;;;5.32;;
41061;SDS011;26812;42.662;23.352;2022-07-01T09:09:17;7.03;;;5.25;;
41061;SDS011;26812;42.662;23.352;2022-07-01T09:11:48;6.22;;;4.57;;
41061;SDS011;26812;42.662;23.352;2022-07-01T09:14:19;10.65;;;7.47;;
41061;SDS011;26812;42.662;23.352;2022-07-01T09:16:56;6.70;;;5.85;;
41061;SDS011;26812;42.662;23.352;2022-07-01T09:19:26;7.25;;;5.53;;
41061;SDS011;26812;42.662;23.352;2022-07-01T09:21:57;6.53;;;5.18;;
41061;SDS011;26812;42.662;23.352;2022-07-01T09:24:37;7.30;;;4.95;;
41061;SDS011;26812;42.662;23.352;2022-07-01T09:27:07;7.40;;;5.30;;
41061;SDS011;26812;42.662;23.352;2022-07-01T09:29:59;7.70;;;5.47;;
41061;SDS011;26812;42.662;23.352;2022-07-01T09:32:24;8.15;;;4.97;;
41061;SDS011;26812;42.662;23.352;2022-07-01T09:34:51;5.32;;;4.15;;
41061;SDS011;26812;42.662;23.352;2022-07-01T09:37:19;8.27;;;4.55;;
41061;SDS011;26812;42.662;23.352;2022-07-01T09:39:47;7.63;;;4.68;;
41061;SDS011;26812;42.662;23.352;2022-07-01T09:42:23;6.13;;;4.88;;
41061;SDS011;26812;42.662;23.352;2022-07-01T09:47:32;5.70;;;4.15;;
41061;SDS011;26812;42.662;23.352;2022-07-01T09:49:58;5.25;;;4.13;;
41061;SDS011;26812;42.662;23.352;2022-07-01T09:52:25;7.88;;;4.82;;
41061;SDS011;26812;42.662;23.352;2022-07-01T09:54:51;6.38;;;4.47;;
41061;SDS011;26812;42.662;23.352;2022-07-01T09:57:17;5.90;;;3.97;;
41061;SDS011;26812;42.662;23.352;2022-07-01T09:59:44;4.28;;;3.80;;
41061;SDS011;26812;42.662;23.352;2022-07-01T10:02:10;5.40;;;4.55;;
41061;SDS011;26812;42.662;23.352;2022-07-01T10:04:37;5.53;;;3.70;;
41061;SDS011;26812;42.662;23.352;2022-07-01T10:09:56;6.07;;;4.50;;
41061;SDS011;26812;42.662;23.352;2022-07-01T10:15:04;6.88;;;4.10;;
41061;SDS011;26812;42.662;23.352;2022-07-01T10:17:34;6.13;;;4.35;;
41061;SDS011;26812;42.662;23.352;2022-07-01T10:22:35;6.28;;;4.22;;
41061;SDS011;26812;42.662;23.352;2022-07-01T10:30:49;5.13;;;4.10;;
41061;SDS011;26812;42.662;23.352;2022-07-01T10:33:34;7.30;;;4.70;;
41061;SDS011;26812;42.662;23.352;2022-07-01T10:36:06;5.85;;;3.63;;
41061;SDS011;26812;42.662;23.352;2022-07-01T10:41:31;4.95;;;3.33;;
41061;SDS011;26812;42.662;23.352;2022-07-01T10:43:58;4.63;;;3.95;;
41061;SDS011;26812;42.662;23.352;2022-07-01T10:46:41;6.13;;;3.63;;
41061;SDS011;26812;42.662;23.352;2022-07-01T10:49:13;6.68;;;3.55;;
41061;SDS011;26812;42.662;23.352;2022-07-01T10:51:50;4.15;;;3.30;;
41061;SDS011;26812;42.662;23.352;2022-07-01T10:59:45;5.60;;;3.42;;
41061;SDS011;26812;42.662;23.352;2022-07-01T11:02:18;4.38;;;3.80;;
41061;SDS011;26812;42.662;23.352;2022-07-01T11:04:45;4.45;;;3.97;;
41061;SDS011;26812;42.662;23.352;2022-07-01T11:07:11;7.38;;;3.90;;
41061;SDS011;26812;42.662;23.352;2022-07-01T11:09:36;5.30;;;3.72;;
41061;SDS011;26812;42.662;23.352;2022-07-01T11:12:03;5.57;;;3.90;;
41061;SDS011;26812;42.662;23.352;2022-07-01T11:14:33;4.40;;;3.63;;
41061;SDS011;26812;42.662;23.352;2022-07-01T11:17:00;7.75;;;5.13;;
41061;SDS011;26812;42.662;23.352;2022-07-01T11:19:26;4.97;;;3.50;;
41061;SDS011;26812;42.662;23.352;2022-07-01T11:21:52;5.50;;;3.95;;
41061;SDS011;26812;42.662;23.352;2022-07-01T11:24:19;5.75;;;3.80;;
41061;SDS011;26812;42.662;23.352;2022-07-01T11:26:46;5.53;;;3.90;;
41061;SDS011;26812;42.662;23.352;2022-07-01T11:29:12;3.97;;;3.60;;
41061;SDS011;26812;42.662;23.352;2022-07-01T11:31:38;5.82;;;3.97;;
41061;SDS011;26812;42.662;23.352;2022-07-01T11:34:04;8.50;;;4.13;;
41061;SDS011;26812;42.662;23.352;2022-07-01T11:36:30;6.03;;;4.00;;
41061;SDS011;26812;42.662;23.352;2022-07-01T11:39:16;4.80;;;3.50;;
41061;SDS011;26812;42.662;23.352;2022-07-01T11:44:29;5.05;;;3.60;;
41061;SDS011;26812;42.662;23.352;2022-07-01T11:46:56;4.40;;;3.85;;
41061;SDS011;26812;42.662;23.352;2022-07-01T11:49:22;3.85;;;3.42;;
41061;SDS011;26812;42.662;23.352;2022-07-01T11:51:56;5.75;;;3.47;;
41061;SDS011;26812;42.662;23.352;2022-07-01T11:54:22;4.22;;;3.60;;
41061;SDS011;26812;42.662;23.352;2022-07-01T11:56:48;4.80;;;3.67;;
41061;SDS011;26812;42.662;23.352;2022-07-01T11:59:14;5.13;;;3.50;;
41061;SDS011;26812;42.662;23.352;2022-07-01T12:01:39;4.50;;;3.30;;
41061;SDS011;26812;42.662;23.352;2022-07-01T12:04:08;6.05;;;3.83;;
41061;SDS011;26812;42.662;23.352;2022-07-01T12:06:35;5.03;;;3.83;;
41061;SDS011;26812;42.662;23.352;2022-07-01T12:09:04;6.20;;;3.85;;
41061;SDS011;26812;42.662;23.352;2022-07-01T12:11:30;4.13;;;3.55;;
41061;SDS011;26812;42.662;23.352;2022-07-01T12:13:55;3.75;;;3.45;;
41061;SDS011;26812;42.662;23.352;2022-07-01T12:16:22;6.57;;;3.78;;
41061;SDS011;26812;42.662;23.352;2022-07-01T12:21:25;7.43;;;3.60;;
41061;SDS011;26812;42.662;23.352;2022-07-01T12:24:01;4.53;;;3.15;;
41061;SDS011;26812;42.662;23.352;2022-07-01T12:26:48;4.25;;;3.72;;
41061;SDS011;26812;42.662;23.352;2022-07-01T12:29:28;6.32;;;3.63;;
41061;SDS011;26812;42.662;23.352;2022-07-01T12:37:12;3.70;;;3.20;;
41061;SDS011;26812;42.662;23.352;2022-07-01T12:39:49;4.13;;;3.45;;
41061;SDS011;26812;42.662;23.352;2022-07-01T12:42:20;3.25;;;2.90;;
41061;SDS011;26812;42.662;23.352;2022-07-01T12:45:08;3.28;;;3.00;;
41061;SDS011;26812;42.662;23.352;2022-07-01T12:47:37;4.00;;;3.60;;
41061;SDS011;26812;42.662;23.352;2022-07-01T12:50:08;4.85;;;2.95;;
41061;SDS011;26812;42.662;23.352;2022-07-01T12:52:34;4.50;;;2.92;;
41061;SDS011;26812;42.662;23.352;2022-07-01T12:54:59;4.22;;;3.85;;
41061;SDS011;26812;42.662;23.352;2022-07-01T12:57:29;5.32;;;3.90;;
41061;SDS011;26812;42.662;23.352;2022-07-01T12:59:58;4.10;;;3.53;;
41061;SDS011;26812;42.662;23.352;2022-07-01T13:02:24;6.00;;;3.88;;
41061;SDS011;26812;42.662;23.352;2022-07-01T13:04:49;6.40;;;4.20;;
41061;SDS011;26812;42.662;23.352;2022-07-01T13:07:15;8.57;;;4.20;;
41061;SDS011;26812;42.662;23.352;2022-07-01T13:09:40;10.35;;;4.57;;
41061;SDS011;26812;42.662;23.352;2022-07-01T13:12:06;4.63;;;4.00;;
41061;SDS011;26812;42.662;23.352;2022-07-01T13:14:32;7.53;;;4.28;;
41061;SDS011;26812;42.662;23.352;2022-07-01T13:16:57;6.32;;;4.30;;
41061;SDS011;26812;42.662;23.352;2022-07-01T13:19:23;4.45;;;4.05;;
41061;SDS011;26812;42.662;23.352;2022-07-01T13:21:48;6.93;;;4.55;;
41061;SDS011;26812;42.662;23.352;2022-07-01T13:24:14;5.20;;;4.63;;
41061;SDS011;26812;42.662;23.352;2022-07-01T13:26:39;9.25;;;4.40;;
41061;SDS011;26812;42.662;23.352;2022-07-01T13:29:05;6.38;;;3.90;;
41061;SDS011;26812;42.662;23.352;2022-07-01T13:31:31;6.03;;;3.83;;
41061;SDS011;26812;42.662;23.352;2022-07-01T13:33:57;4.50;;;4.10;;
41061;SDS011;26812;42.662;23.352;2022-07-01T13:36:22;4.68;;;4.28;;
41061;SDS011;26812;42.662;23.352;2022-07-01T13:38:47;6.85;;;4.40;;
41061;SDS011;26812;42.662;23.352;2022-07-01T13:41:14;5.95;;;4.20;;
41061;SDS011;26812;42.662;23.352;2022-07-01T13:43:40;8.13;;;4.60;;
41061;SDS011;26812;42.662;23.352;2022-07-01T13:46:06;9.27;;;4.85;;
41061;SDS011;26812;42.662;23.352;2022-07-01T13:48:32;5.68;;;4.22;;
41061;SDS011;26812;42.662;23.352;2022-07-01T13:50:57;5.63;;;5.07;;
41061;SDS011;26812;42.662;23.352;2022-07-01T13:53:23;4.60;;;4.20;;
41061;SDS011;26812;42.662;23.352;2022-07-01T13:55:48;7.18;;;4.07;;
41061;SDS011;26812;42.662;23.352;2022-07-01T13:58:13;5.25;;;4.35;;
41061;SDS011;26812;42.662;23.352;2022-07-01T14:00:40;5.88;;;4.65;;
41061;SDS011;26812;42.662;23.352;2022-07-01T14:03:06;5.63;;;5.10;;
41061;SDS011;26812;42.662;23.352;2022-07-01T14:05:31;5.60;;;4.97;;
41061;SDS011;26812;42.662;23.352;2022-07-01T14:07:56;6.82;;;4.95;;
41061;SDS011;26812;42.662;23.352;2022-07-01T14:10:22;5.65;;;4.45;;
41061;SDS011;26812;42.662;23.352;2022-07-01T14:12:47;5.35;;;4.93;;
41061;SDS011;26812;42.662;23.352;2022-07-01T14:15:13;6.88;;;5.60;;
41061;SDS011;26812;42.662;23.352;2022-07-01T14:17:38;5.28;;;4.78;;
41061;SDS011;26812;42.662;23.352;2022-07-01T14:20:05;5.43;;;4.97;;
41061;SDS011;26812;42.662;23.352;2022-07-01T14:22:31;6.18;;;4.90;;
41061;SDS011;26812;42.662;23.352;2022-07-01T14:24:56;5.63;;;4.72;;
41061;SDS011;26812;42.662;23.352;2022-07-01T14:27:22;4.95;;;4.32;;
41061;SDS011;26812;42.662;23.352;2022-07-01T14:29:47;5.13;;;4.63;;
41061;SDS011;26812;42.662;23.352;2022-07-01T14:32:13;5.03;;;4.20;;
41061;SDS011;26812;42.662;23.352;2022-07-01T14:34:38;5.45;;;4.95;;
41061;SDS011;26812;42.662;23.352;2022-07-01T14:37:04;5.20;;;3.88;;
41061;SDS011;26812;42.662;23.352;2022-07-01T14:39:29;4.43;;;4.10;;
41061;SDS011;26812;42.662;23.352;2022-07-01T14:41:55;5.45;;;4.72;;
41061;SDS011;26812;42.662;23.352;2022-07-01T14:44:20;5.55;;;5.10;;
41061;SDS011;26812;42.662;23.352;2022-07-01T14:46:46;5.28;;;4.40;;
41061;SDS011;26812;42.662;23.352;2022-07-01T14:49:12;4.75;;;4.35;;
41061;SDS011;26812;42.662;23.352;2022-07-01T14:51:39;4.85;;;4.45;;
41061;SDS011;26812;42.662;23.352;2022-07-01T14:54:04;6.43;;;4.15;;
41061;SDS011;26812;42.662;23.352;2022-07-01T14:56:30;11.85;;;6.10;;
41061;SDS011;26812;42.662;23.352;2022-07-01T14:58:55;4.88;;;4.28;;
41061;SDS011;26812;42.662;23.352;2022-07-01T15:01:21;6.70;;;4.15;;
41061;SDS011;26812;42.662;23.352;2022-07-01T15:03:46;4.65;;;4.25;;
41061;SDS011;26812;42.662;23.352;2022-07-01T15:06:12;9.52;;;5.45;;
41061;SDS011;26812;42.662;23.352;2022-07-01T15:08:37;6.40;;;4.63;;